Time;durP1;ratioP1;P1;durP2;ratioP2;P2;SDS_P1;SDS_P2;PMS_P1;PMS_P2;Temp;Humidity;BMP_temperature;BMP_pressure;BME280_temperature;BME280_humidity;BME280_pressure;Samples;Min_cycle;Max_cycle;Signal;HPM_P1;HPM_P2
2023/06/26 00:01:59;;;;;;;9.87;8.50;;;;;;;;;;10276790;28;20475;-74
2023/06/26 00:07:00;;;;;;;8.67;7.77;;;;;;;;;;10278494;28;20691;-77
2023/06/26 00:12:00;;;;;;;8.93;7.83;;;;;;;;;;10253853;28;20300;-76
2023/06/26 00:17:00;;;;;;;8.63;7.72;;;;;;;;;;10262791;28;20047;-76
2023/06/26 00:22:01;;;;;;;9.13;7.70;;;;;;;;;;10272609;28;20034;-76
2023/06/26 00:27:01;;;;;;;8.90;6.87;;;;;;;;;;10261895;28;20301;-75
2023/06/26 00:32:02;;;;;;;8.38;7.47;;;;;;;;;;10282515;28;20289;-76
2023/06/26 00:37:02;;;;;;;7.75;6.93;;;;;;;;;;10286315;28;20046;-75
2023/06/26 00:42:04;;;;;;;8.63;7.72;;;;;;;;;;10275786;28;20042;-75
2023/06/26 00:47:04;;;;;;;8.18;7.18;;;;;;;;;;10282680;28;20607;-74
2023/06/26 00:52:05;;;;;;;7.95;7.15;;;;;;;;;;10289399;28;20046;-78
2023/06/26 00:57:06;;;;;;;8.75;7.22;;;;;;;;;;10268386;28;20047;-76
2023/06/26 01:02:09;;;;;;;8.32;7.45;;;;;;;;;;10282687;28;20043;-75
2023/06/26 01:07:10;;;;;;;9.43;7.43;;;;;;;;;;10262546;28;20119;-74
2023/06/26 01:12:10;;;;;;;7.40;6.60;;;;;;;;;;10280114;28;20582;-74
2023/06/26 01:17:15;;;;;;;8.27;7.40;;;;;;;;;;10267044;28;20057;-74
2023/06/26 01:22:44;;;;;;;7.70;6.90;;;;;;;;;;10286184;28;20042;-75
2023/06/26 01:27:46;;;;;;;8.88;7.85;;;;;;;;;;10281087;28;21034;-76
2023/06/26 01:32:47;;;;;;;9.93;8.10;;;;;;;;;;10273481;28;20073;-75
2023/06/26 01:37:48;;;;;;;9.98;8.13;;;;;;;;;;10264363;28;20073;-76
2023/06/26 01:42:49;;;;;;;8.40;7.53;;;;;;;;;;10282279;28;20038;-76
2023/06/26 01:47:51;;;;;;;8.80;7.10;;;;;;;;;;10269971;28;20047;-75
2023/06/26 01:52:54;;;;;;;8.80;7.60;;;;;;;;;;10268040;28;20058;-75
2023/06/26 01:57:56;;;;;;;8.88;7.88;;;;;;;;;;10261513;28;20038;-75
2023/06/26 02:02:57;;;;;;;10.10;7.97;;;;;;;;;;10265526;28;20527;-76
2023/06/26 02:07:58;;;;;;;9.77;7.70;;;;;;;;;;10262697;28;20047;-75
2023/06/26 02:12:58;;;;;;;9.27;7.82;;;;;;;;;;10268345;28;20102;-76
2023/06/26 02:17:58;;;;;;;9.10;8.20;;;;;;;;;;10281175;28;20050;-74
2023/06/26 02:23:00;;;;;;;9.90;8.07;;;;;;;;;;10282239;28;20294;-75
2023/06/26 02:28:00;;;;;;;10.03;7.93;;;;;;;;;;10272825;28;20550;-76
2023/06/26 02:33:01;;;;;;;9.70;7.97;;;;;;;;;;10262029;28;20518;-76
2023/06/26 02:38:01;;;;;;;9.25;8.00;;;;;;;;;;10284068;28;20042;-76
2023/06/26 02:43:03;;;;;;;9.50;8.40;;;;;;;;;;10283543;28;20602;-76
2023/06/26 02:48:05;;;;;;;9.95;8.52;;;;;;;;;;10268515;28;20078;-77
2023/06/26 02:53:07;;;;;;;8.20;7.38;;;;;;;;;;10259676;28;20046;-75
2023/06/26 02:58:08;;;;;;;9.02;8.05;;;;;;;;;;10270383;28;20047;-73
2023/06/26 03:03:09;;;;;;;11.52;8.30;;;;;;;;;;10267172;28;20047;-75
2023/06/26 03:08:11;;;;;;;10.13;8.10;;;;;;;;;;10279111;28;20055;-75
2023/06/26 03:13:12;;;;;;;10.25;8.10;;;;;;;;;;10250511;28;20058;-75
2023/06/26 03:18:13;;;;;;;9.80;8.05;;;;;;;;;;10262112;28;20058;-77
2023/06/26 03:23:17;;;;;;;9.50;8.02;;;;;;;;;;10260398;28;20047;-76
2023/06/26 03:28:17;;;;;;;9.50;8.50;;;;;;;;;;10282117;28;21035;-76
2023/06/26 03:33:17;;;;;;;9.90;8.47;;;;;;;;;;10269357;28;20061;-75
2023/06/26 03:38:18;;;;;;;10.02;8.60;;;;;;;;;;10280088;28;20288;-74
2023/06/26 03:43:20;;;;;;;9.73;8.30;;;;;;;;;;10273823;28;20495;-75
2023/06/26 03:48:34;;;;;;;10.38;8.93;;;;;;;;;;10261410;28;20519;-74
2023/06/26 03:53:34;;;;;;;9.27;7.70;;;;;;;;;;10257212;28;20065;-74
2023/06/26 03:58:34;;;;;;;9.65;7.88;;;;;;;;;;10265949;28;20055;-73
2023/06/26 04:03:35;;;;;;;9.97;8.40;;;;;;;;;;10265974;28;21274;-74
2023/06/26 04:08:35;;;;;;;9.10;8.00;;;;;;;;;;10290327;28;20050;-76
2023/06/26 04:13:36;;;;;;;10.00;7.90;;;;;;;;;;10259866;28;20125;-75
2023/06/26 04:18:36;;;;;;;8.50;7.60;;;;;;;;;;10276768;28;20294;-75
2023/06/26 04:23:38;;;;;;;9.13;8.10;;;;;;;;;;10277009;28;20112;-75
2023/06/26 04:28:40;;;;;;;8.55;7.45;;;;;;;;;;10261043;28;20050;-74
2023/06/26 04:33:40;;;;;;;9.87;7.93;;;;;;;;;;10277294;28;20054;-75
2023/06/26 04:38:41;;;;;;;10.70;7.87;;;;;;;;;;10257901;28;20053;-76
2023/06/26 04:43:41;;;;;;;8.98;8.07;;;;;;;;;;10269917;28;20112;-75
2023/06/26 04:48:42;;;;;;;7.90;7.10;;;;;;;;;;10275574;28;20452;-73
2023/06/26 04:53:42;;;;;;;8.68;7.20;;;;;;;;;;10284489;28;20062;-79
2023/06/26 04:58:45;;;;;;;8.33;7.33;;;;;;;;;;10270758;28;20046;-81
2023/06/26 05:03:47;;;;;;;;;;;;;;;;;;10315742;28;20051;-78
2023/06/26 05:08:47;;;;;;;7.93;6.80;;;;;;;;;;10320802;28;19902;-77
2023/06/26 05:13:48;;;;;;;8.63;7.23;;;;;;;;;;10329851;28;20379;-78
2023/06/26 05:18:48;;;;;;;7.55;6.10;;;;;;;;;;10319037;28;20043;-81
2023/06/26 05:23:49;;;;;;;9.27;7.10;;;;;;;;;;10312766;28;20039;-79
2023/06/26 05:28:50;;;;;;;10.20;7.50;;;;;;;;;;10297751;28;20118;-77
2023/06/26 05:33:52;;;;;;;7.90;6.70;;;;;;;;;;10276550;28;20058;-77
2023/06/26 05:38:52;;;;;;;8.17;7.13;;;;;;;;;;10276639;28;20054;-73
2023/06/26 05:43:54;;;;;;;8.15;7.15;;;;;;;;;;10281906;28;20980;-74
2023/06/26 05:48:54;;;;;;;7.88;7.07;;;;;;;;;;10280924;28;20054;-74
2023/06/26 05:53:55;;;;;;;8.23;7.17;;;;;;;;;;10278365;28;20061;-70
2023/06/26 05:58:56;;;;;;;8.05;7.22;;;;;;;;;;10277153;28;20042;-73
2023/06/26 06:03:56;;;;;;;9.38;7.30;;;;;;;;;;10276453;28;20059;-72
2023/06/26 06:08:56;;;;;;;8.67;7.73;;;;;;;;;;10282720;28;20050;-71
2023/06/26 06:13:58;;;;;;;8.13;7.10;;;;;;;;;;10268545;28;20062;-70
2023/06/26 06:18:59;;;;;;;9.38;7.18;;;;;;;;;;10263565;28;20051;-73
2023/06/26 06:24:01;;;;;;;8.03;6.73;;;;;;;;;;10277151;28;20051;-75
2023/06/26 06:29:01;;;;;;;8.45;7.55;;;;;;;;;;10272394;28;20046;-72
2023/06/26 06:34:02;;;;;;;10.27;8.00;;;;;;;;;;10279029;28;21005;-74
2023/06/26 06:39:03;;;;;;;9.30;7.30;;;;;;;;;;10280340;28;20133;-73
2023/06/26 06:44:03;;;;;;;8.82;7.45;;;;;;;;;;10262181;28;20050;-76
2023/06/26 06:49:04;;;;;;;8.80;6.97;;;;;;;;;;10275155;28;20043;-74
2023/06/26 06:54:04;;;;;;;8.77;6.83;;;;;;;;;;10270668;28;20054;-73
2023/06/26 06:59:05;;;;;;;9.73;8.13;;;;;;;;;;10278724;28;20887;-73
2023/06/26 07:04:05;;;;;;;9.15;7.35;;;;;;;;;;10275792;28;20774;-73
2023/06/26 07:09:06;;;;;;;9.23;7.33;;;;;;;;;;10280666;28;20130;-72
2023/06/26 07:14:07;;;;;;;12.02;7.85;;;;;;;;;;10277786;28;20047;-73
2023/06/26 07:19:07;;;;;;;9.10;7.60;;;;;;;;;;10275720;28;20192;-73
2023/06/26 07:24:07;;;;;;;8.10;7.30;;;;;;;;;;10272219;28;20050;-73
2023/06/26 07:29:08;;;;;;;9.73;7.83;;;;;;;;;;10272775;28;20115;-76
2023/06/26 07:34:08;;;;;;;11.20;6.82;;;;;;;;;;10282644;28;20194;-72
2023/06/26 07:39:09;;;;;;;8.77;7.27;;;;;;;;;;10276077;28;20047;-73
2023/06/26 07:44:09;;;;;;;8.47;7.13;;;;;;;;;;10261977;28;20438;-73
2023/06/26 07:49:10;;;;;;;9.50;7.70;;;;;;;;;;10272143;28;20039;-78
2023/06/26 07:54:10;;;;;;;8.90;7.10;;;;;;;;;;10275956;28;20058;-74
2023/06/26 07:59:11;;;;;;;9.30;7.33;;;;;;;;;;10261258;28;20062;-74
2023/06/26 08:04:11;;;;;;;8.40;7.30;;;;;;;;;;10276775;28;20049;-72
2023/06/26 08:09:12;;;;;;;7.73;6.93;;;;;;;;;;10279571;28;20039;-72
2023/06/26 08:14:13;;;;;;;8.65;7.10;;;;;;;;;;10273680;28;20124;-78
2023/06/26 08:19:14;;;;;;;8.35;7.40;;;;;;;;;;10261549;28;20042;-77
2023/06/26 08:24:18;;;;;;;8.00;7.20;;;;;;;;;;10269689;28;20042;-79
2023/06/26 08:29:18;;;;;;;8.68;7.75;;;;;;;;;;10281255;28;20046;-79
2023/06/26 08:34:19;;;;;;;8.82;7.80;;;;;;;;;;10277684;28;20465;-77
2023/06/26 08:39:19;;;;;;;7.93;6.87;;;;;;;;;;10258224;28;20183;-79
2023/06/26 08:44:23;;;;;;;9.07;7.87;;;;;;;;;;10286326;28;20051;-78
2023/06/26 08:49:27;;;;;;;8.98;8.02;;;;;;;;;;10280846;28;20043;-79
2023/06/26 08:54:33;;;;;;;12.02;10.68;;;;;;;;;;10278717;28;20396;-80
2023/06/26 08:59:34;;;;;;;8.57;7.40;;;;;;;;;;10283383;28;20061;-80
2023/06/26 09:04:34;;;;;;;10.63;7.07;;;;;;;;;;10281357;28;20068;-79
2023/06/26 09:09:35;;;;;;;9.10;7.23;;;;;;;;;;10279521;28;20046;-79
2023/06/26 09:14:37;;;;;;;8.77;7.47;;;;;;;;;;10285223;28;21012;-78
2023/06/26 09:19:38;;;;;;;8.45;6.78;;;;;;;;;;10289082;28;20755;-79
2023/06/26 09:24:40;;;;;;;7.95;7.13;;;;;;;;;;10270875;28;20116;-78
2023/06/26 09:29:40;;;;;;;9.57;6.88;;;;;;;;;;10282147;28;20569;-78
2023/06/26 09:34:42;;;;;;;6.97;6.27;;;;;;;;;;10280912;28;20055;-78
2023/06/26 09:39:44;;;;;;;7.50;6.68;;;;;;;;;;10282445;28;20058;-77
2023/06/26 09:44:45;;;;;;;7.03;6.33;;;;;;;;;;10282306;28;20047;-80
2023/06/26 09:49:45;;;;;;;6.82;6.20;;;;;;;;;;10269701;28;20046;-80
2023/06/26 09:54:46;;;;;;;7.40;6.60;;;;;;;;;;10284334;28;20407;-78
2023/06/26 09:59:47;;;;;;;8.20;7.20;;;;;;;;;;10281621;28;20053;-79
2023/06/26 10:04:47;;;;;;;9.95;7.43;;;;;;;;;;10272010;28;20069;-81
2023/06/26 10:09:50;;;;;;;7.33;6.63;;;;;;;;;;10317982;28;20090;-79
2023/06/26 10:14:51;;;;;;;8.02;6.70;;;;;;;;;;10327028;28;20042;-80
2023/06/26 10:19:53;;;;;;;8.15;6.45;;;;;;;;;;10338475;28;20039;-78
2023/06/26 10:24:55;;;;;;;7.38;6.68;;;;;;;;;;10296507;28;20049;-81
2023/06/26 10:29:57;;;;;;;8.20;6.32;;;;;;;;;;10281024;28;20105;-82
2023/06/26 10:34:57;;;;;;;7.57;6.60;;;;;;;;;;10284026;28;20047;-80
2023/06/26 10:39:59;;;;;;;7.83;6.50;;;;;;;;;;10280973;28;20053;-80
2023/06/26 10:45:08;;;;;;;6.70;6.00;;;;;;;;;;10270317;28;20080;-81
2023/06/26 10:50:21;;;;;;;10.63;9.52;;;;;;;;;;10278722;28;20043;-79
2023/06/26 10:55:27;;;;;;;8.35;6.18;;;;;;;;;;10271794;28;20058;-81
2023/06/26 11:00:27;;;;;;;7.03;6.30;;;;;;;;;;10273747;28;20113;-78
2023/06/26 11:05:28;;;;;;;6.90;6.20;;;;;;;;;;10277705;28;20055;-79
2023/06/26 11:10:29;;;;;;;7.05;5.63;;;;;;;;;;10273579;28;20835;-78
2023/06/26 11:15:29;;;;;;;6.43;5.83;;;;;;;;;;10276645;28;20071;-77
2023/06/26 11:20:30;;;;;;;5.93;5.33;;;;;;;;;;10256594;28;20051;-80
2023/06/26 11:25:33;;;;;;;7.07;5.53;;;;;;;;;;10274569;28;20043;-82
2023/06/26 11:30:34;;;;;;;6.10;5.50;;;;;;;;;;10262919;28;20639;-79
2023/06/26 11:35:34;;;;;;;6.80;5.30;;;;;;;;;;10281345;28;20058;-79
2023/06/26 11:40:34;;;;;;;;;;;;;;;;;;10284046;28;20058;-78
2023/06/26 11:45:35;;;;;;;5.73;5.13;;;;;;;;;;10273802;28;21095;-79
2023/06/26 11:50:35;;;;;;;;;;;;;;;;;;10277982;28;20057;-79
2023/06/26 11:55:40;;;;;;;5.72;4.88;;;;;;;;;;10279494;28;19969;-79
2023/06/26 12:00:42;;;;;;;5.40;4.68;;;;;;;;;;10278958;28;20114;-80
2023/06/26 12:05:45;;;;;;;5.22;4.72;;;;;;;;;;10286906;28;20170;-80
2023/06/26 12:10:45;;;;;;;5.22;4.30;;;;;;;;;;10281427;28;20662;-78
2023/06/26 12:15:45;;;;;;;;;;;;;;;;;;10261615;28;20055;-79
2023/06/26 12:20:46;;;;;;;5.32;4.75;;;;;;;;;;10273452;28;19922;-76
2023/06/26 12:25:49;;;;;;;;;;;;;;;;;;10271011;28;20055;-78
2023/06/26 12:31:09;;;;;;;5.65;4.68;;;;;;;;;;10277048;28;19917;-78
2023/06/26 12:36:10;;;;;;;5.43;4.93;;;;;;;;;;10278285;28;20069;-80
2023/06/26 12:41:10;;;;;;;;;;;;;;;;;;10285543;28;20049;-79
2023/06/26 12:46:11;;;;;;;5.38;4.70;;;;;;;;;;10286237;28;19989;-77
2023/06/26 12:51:11;;;;;;;5.90;5.30;;;;;;;;;;10276729;28;20557;-79
2023/06/26 12:56:12;;;;;;;5.22;4.72;;;;;;;;;;10282962;28;20046;-80
2023/06/26 13:01:15;;;;;;;5.68;5.07;;;;;;;;;;10293547;28;20411;-79
2023/06/26 13:06:15;;;;;;;5.32;4.80;;;;;;;;;;10280032;28;20816;-79
2023/06/26 13:11:16;;;;;;;5.30;4.80;;;;;;;;;;10287939;28;20129;-80
2023/06/26 13:16:18;;;;;;;6.00;5.40;;;;;;;;;;10306585;28;20085;-79
2023/06/26 13:21:18;;;;;;;5.57;5.18;;;;;;;;;;10300291;28;20047;-80
2023/06/26 13:26:19;;;;;;;;;;;;;;;;;;10285188;28;20087;-82
2023/06/26 13:31:19;;;;;;;7.65;5.68;;;;;;;;;;10277380;28;19917;-79
2023/06/26 13:36:20;;;;;;;;;;;;;;;;;;10278582;28;20090;-79
2023/06/26 13:41:24;;;;;;;7.82;5.95;;;;;;;;;;10302115;28;19914;-79
2023/06/26 13:46:25;;;;;;;9.70;6.40;;;;;;;;;;10301026;28;20035;-80
2023/06/26 13:51:25;;;;;;;;;;;;;;;;;;10280456;28;20085;-79
2023/06/26 13:56:26;;;;;;;6.78;5.85;;;;;;;;;;10279616;28;19926;-82
2023/06/26 14:01:26;;;;;;;;;;;;;;;;;;10280981;28;20043;-80
2023/06/26 14:06:27;;;;;;;6.97;6.20;;;;;;;;;;10276641;28;19922;-77
2023/06/26 14:11:27;;;;;;;;;;;;;;;;;;10277041;28;20163;-79
2023/06/26 14:16:28;;;;;;;7.40;5.90;;;;;;;;;;10279047;28;20749;-78
2023/06/26 14:21:28;;;;;;;7.00;6.15;;;;;;;;;;10277285;28;20134;-81
2023/06/26 14:26:29;;;;;;;;;;;;;;;;;;10276305;28;20057;-77
2023/06/26 14:31:30;;;;;;;7.00;6.03;;;;;;;;;;10262248;28;19921;-78
2023/06/26 14:36:31;;;;;;;7.70;6.90;;;;;;;;;;10268889;28;20129;-80
2023/06/26 14:41:32;;;;;;;;;;;;;;;;;;10284130;28;20043;-79
2023/06/26 14:46:32;;;;;;;7.25;6.55;;;;;;;;;;10285274;28;19917;-80
2023/06/26 14:51:32;;;;;;;;;;;;;;;;;;10287221;28;20513;-81
2023/06/26 14:56:33;;;;;;;8.05;6.90;;;;;;;;;;10276177;28;20722;-81
2023/06/26 15:01:33;;;;;;;7.77;6.30;;;;;;;;;;10278724;28;20054;-80
2023/06/26 15:06:34;;;;;;;7.60;6.90;;;;;;;;;;10283016;28;20396;-81
2023/06/26 15:11:36;;;;;;;10.02;7.60;;;;;;;;;;10278262;28;20347;-82
2023/06/26 15:16:36;;;;;;;8.97;8.07;;;;;;;;;;10275977;28;20066;-81
2023/06/26 15:21:36;;;;;;;10.80;8.50;;;;;;;;;;10274245;28;20045;-82
2023/06/26 15:26:36;;;;;;;9.50;8.60;;;;;;;;;;10287632;28;20043;-81
2023/06/26 15:31:37;;;;;;;8.10;7.30;;;;;;;;;;10277479;28;20121;-81
2023/06/26 15:36:38;;;;;;;8.88;7.97;;;;;;;;;;10280136;28;20142;-83
2023/06/26 15:41:38;;;;;;;12.20;8.17;;;;;;;;;;10277238;28;20058;-79
2023/06/26 15:46:39;;;;;;;11.77;8.80;;;;;;;;;;10274343;28;20046;-82
2023/06/26 15:51:39;;;;;;;11.50;8.20;;;;;;;;;;10279044;28;20513;-81
2023/06/26 15:56:39;;;;;;;8.97;7.73;;;;;;;;;;10265312;28;20078;-80
2023/06/26 16:01:40;;;;;;;8.57;7.53;;;;;;;;;;10277770;28;20105;-83
2023/06/26 16:06:40;;;;;;;10.07;8.63;;;;;;;;;;10286078;28;20042;-80
2023/06/26 16:11:40;;;;;;;10.93;8.73;;;;;;;;;;10255262;28;20050;-81
2023/06/26 16:16:41;;;;;;;9.00;8.10;;;;;;;;;;10297782;28;20074;-79
2023/06/26 16:21:41;;;;;;;9.40;8.20;;;;;;;;;;10282297;28;20050;-79
2023/06/26 16:26:42;;;;;;;7.87;7.07;;;;;;;;;;10270026;28;20125;-80
2023/06/26 16:31:42;;;;;;;8.27;7.20;;;;;;;;;;10283273;28;20244;-82
2023/06/26 16:36:42;;;;;;;8.10;7.30;;;;;;;;;;10272714;28;20134;-79
2023/06/26 16:41:43;;;;;;;12.83;9.40;;;;;;;;;;10273728;28;20165;-79
2023/06/26 16:46:43;;;;;;;7.90;7.10;;;;;;;;;;10275422;28;20579;-82
2023/06/26 16:51:44;;;;;;;7.47;6.70;;;;;;;;;;10274740;28;20477;-81
2023/06/26 16:56:44;;;;;;;8.83;7.53;;;;;;;;;;10280422;28;20538;-81
2023/06/26 17:01:44;;;;;;;7.63;6.82;;;;;;;;;;10275937;28;20636;-83
2023/06/26 17:06:45;;;;;;;8.33;6.60;;;;;;;;;;10273877;28;20081;-81
2023/06/26 17:11:45;;;;;;;7.47;6.27;;;;;;;;;;10286193;28;20827;-79
2023/06/26 17:16:45;;;;;;;7.53;5.93;;;;;;;;;;10285101;28;20062;-80
2023/06/26 17:21:47;;;;;;;6.63;5.93;;;;;;;;;;10283192;28;20070;-79
2023/06/26 17:26:47;;;;;;;8.23;7.05;;;;;;;;;;10279865;28;20039;-75
2023/06/26 17:31:48;;;;;;;8.20;6.67;;;;;;;;;;10274500;28;20652;-76
2023/06/26 17:36:48;;;;;;;7.77;6.80;;;;;;;;;;10273394;28;20101;-76
2023/06/26 17:41:48;;;;;;;8.03;7.13;;;;;;;;;;10280650;28;20047;-76
2023/06/26 17:46:49;;;;;;;8.03;7.23;;;;;;;;;;10280250;28;20046;-75
2023/06/26 17:51:49;;;;;;;10.30;7.60;;;;;;;;;;10282657;28;20108;-80
2023/06/26 17:56:49;;;;;;;9.23;6.50;;;;;;;;;;10263305;28;20546;-78
2023/06/26 18:01:50;;;;;;;8.80;7.13;;;;;;;;;;10263148;28;20042;-79
2023/06/26 18:06:50;;;;;;;8.50;6.60;;;;;;;;;;10278262;28;20054;-80
2023/06/26 18:11:51;;;;;;;7.90;6.87;;;;;;;;;;10269035;28;20391;-78
2023/06/26 18:16:51;;;;;;;10.97;6.70;;;;;;;;;;10276907;28;20086;-78
2023/06/26 18:21:51;;;;;;;9.10;7.03;;;;;;;;;;10289151;28;20051;-81
2023/06/26 18:26:52;;;;;;;7.97;6.43;;;;;;;;;;10275848;28;20835;-81
2023/06/26 18:31:52;;;;;;;9.57;6.37;;;;;;;;;;10264055;28;20129;-78
2023/06/26 18:36:53;;;;;;;9.37;6.27;;;;;;;;;;10281950;28;20058;-81
2023/06/26 18:41:53;;;;;;;7.50;5.80;;;;;;;;;;10252405;28;20049;-79
2023/06/26 18:46:55;;;;;;;7.50;5.90;;;;;;;;;;10284135;28;20045;-79
2023/06/26 18:51:55;;;;;;;6.47;5.70;;;;;;;;;;10261817;28;20126;-80
2023/06/26 18:57:00;;;;;;;6.47;5.10;;;;;;;;;;10280583;28;20063;-83
2023/06/26 19:02:01;;;;;;;8.95;5.30;;;;;;;;;;10287869;28;20035;-82
2023/06/26 19:07:02;;;;;;;6.70;5.88;;;;;;;;;;10305887;28;20050;-82
2023/06/26 19:12:04;;;;;;;6.73;5.27;;;;;;;;;;10284347;28;20057;-80
2023/06/26 19:17:04;;;;;;;6.97;5.17;;;;;;;;;;10275312;28;20059;-78
2023/06/26 19:22:04;;;;;;;5.88;4.57;;;;;;;;;;10271894;28;20773;-80
2023/06/26 19:27:05;;;;;;;6.55;4.40;;;;;;;;;;10271110;28;20637;-79
2023/06/26 19:32:06;;;;;;;5.53;4.32;;;;;;;;;;10259290;28;20412;-76
2023/06/26 19:37:06;;;;;;;5.40;3.78;;;;;;;;;;10260993;28;20062;-82
2023/06/26 19:42:07;;;;;;;5.77;4.20;;;;;;;;;;10273905;28;20476;-79
2023/06/26 19:47:07;;;;;;;6.38;3.85;;;;;;;;;;10279785;28;20247;-81
2023/06/26 19:52:07;;;;;;;5.23;3.17;;;;;;;;;;10282904;28;20038;-82
2023/06/26 19:57:10;;;;;;;3.97;3.33;;;;;;;;;;10296556;28;20301;-79
2023/06/26 20:02:11;;;;;;;4.55;3.08;;;;;;;;;;10291248;28;20130;-79
2023/06/26 20:07:11;;;;;;;5.10;2.93;;;;;;;;;;10301449;28;20125;-81
2023/06/26 20:12:12;;;;;;;4.20;2.73;;;;;;;;;;10279455;28;20091;-79
2023/06/26 20:17:12;;;;;;;3.23;2.80;;;;;;;;;;10273686;28;20138;-78
2023/06/26 20:22:13;;;;;;;4.28;2.95;;;;;;;;;;10282162;28;20282;-78
2023/06/26 20:27:13;;;;;;;4.93;2.60;;;;;;;;;;10276401;28;20166;-79
2023/06/26 20:32:13;;;;;;;3.67;2.80;;;;;;;;;;10274732;28;20065;-79
2023/06/26 20:37:14;;;;;;;3.37;2.60;;;;;;;;;;10270908;28;20375;-81
2023/06/26 20:42:15;;;;;;;3.27;2.60;;;;;;;;;;10267572;28;20306;-79
2023/06/26 20:47:18;;;;;;;4.13;3.07;;;;;;;;;;10279504;28;20694;-79
2023/06/26 20:52:19;;;;;;;4.57;3.17;;;;;;;;;;10285127;28;20294;-80
2023/06/26 20:57:19;;;;;;;4.15;2.88;;;;;;;;;;10287165;28;20851;-81
2023/06/26 21:02:20;;;;;;;4.60;2.77;;;;;;;;;;10288714;28;20049;-80
2023/06/26 21:07:20;;;;;;;4.25;2.97;;;;;;;;;;10291343;28;20651;-81
2023/06/26 21:12:21;;;;;;;5.60;2.90;;;;;;;;;;10327900;28;20051;-78
2023/06/26 21:17:21;;;;;;;7.53;3.30;;;;;;;;;;10322494;28;20495;-79
2023/06/26 21:22:21;;;;;;;5.23;3.10;;;;;;;;;;10287542;28;20313;-80
2023/06/26 21:27:22;;;;;;;5.90;3.20;;;;;;;;;;10285022;28;20050;-79
2023/06/26 21:32:22;;;;;;;4.83;2.63;;;;;;;;;;10289344;28;20055;-79
2023/06/26 21:37:24;;;;;;;3.90;2.63;;;;;;;;;;10282021;28;20125;-81
2023/06/26 21:42:24;;;;;;;3.60;2.70;;;;;;;;;;10282849;28;20050;-79
2023/06/26 21:47:25;;;;;;;4.80;2.77;;;;;;;;;;10286523;28;20514;-81
2023/06/26 21:52:25;;;;;;;2.97;2.58;;;;;;;;;;10272915;28;20042;-80
2023/06/26 21:57:25;;;;;;;4.93;2.90;;;;;;;;;;10278335;28;20058;-81
2023/06/26 22:02:26;;;;;;;4.03;2.70;;;;;;;;;;10283122;28;20035;-82
2023/06/26 22:07:26;;;;;;;6.23;2.83;;;;;;;;;;10287124;28;20308;-80
2023/06/26 22:12:26;;;;;;;3.83;2.58;;;;;;;;;;10309906;28;20306;-78
2023/06/26 22:17:27;;;;;;;4.33;2.73;;;;;;;;;;10302968;28;20806;-78
2023/06/26 22:22:28;;;;;;;3.25;2.65;;;;;;;;;;10281989;28;20324;-78
2023/06/26 22:27:29;;;;;;;3.93;2.70;;;;;;;;;;10275149;28;20055;-78
2023/06/26 22:32:29;;;;;;;6.80;2.70;;;;;;;;;;10277557;28;20517;-80
2023/06/26 22:37:30;;;;;;;5.33;3.03;;;;;;;;;;10285525;28;20062;-80
2023/06/26 22:42:30;;;;;;;4.13;2.20;;;;;;;;;;10281425;28;20050;-78
2023/06/26 22:47:32;;;;;;;3.83;2.47;;;;;;;;;;10284717;28;20078;-81
2023/06/26 22:52:32;;;;;;;4.22;2.58;;;;;;;;;;10280172;28;20805;-84
2023/06/26 22:57:33;;;;;;;3.93;2.07;;;;;;;;;;10301635;28;20066;-81
2023/06/26 23:02:34;;;;;;;4.38;2.33;;;;;;;;;;10286397;28;20126;-83
2023/06/26 23:07:35;;;;;;;4.17;2.50;;;;;;;;;;10271699;28;20055;-84
2023/06/26 23:12:35;;;;;;;4.18;2.10;;;;;;;;;;10282444;28;20495;-83
2023/06/26 23:17:36;;;;;;;5.07;2.00;;;;;;;;;;10276831;28;20597;-82
2023/06/26 23:22:36;;;;;;;3.83;1.80;;;;;;;;;;10286039;28;20391;-82
2023/06/26 23:27:41;;;;;;;3.28;1.73;;;;;;;;;;10297508;28;20298;-81
2023/06/26 23:32:41;;;;;;;2.65;1.70;;;;;;;;;;10299622;28;20130;-80
2023/06/26 23:37:42;;;;;;;4.03;1.80;;;;;;;;;;10318459;28;20113;-81
2023/06/26 23:42:43;;;;;;;3.47;2.03;;;;;;;;;;10319130;28;20213;-81
2023/06/26 23:47:52;;;;;;;2.27;1.80;;;;;;;;;;10286945;28;20102;-80
2023/06/26 23:52:53;;;;;;;3.05;2.22;;;;;;;;;;10282277;28;20374;-79
2023/06/26 23:57:53;;;;;;;2.53;1.50;;;;;;;;;;10277094;28;20065;-80
